Time;durP1;ratioP1;P1;durP2;ratioP2;P2;SDS_P1;SDS_P2;PMS_P1;PMS_P2;Temp;Humidity;BMP_temperature;BMP_pressure;BME280_temperature;BME280_humidity;BME280_pressure;Samples;Min_cycle;Max_cycle;Signal;HPM_P1;HPM_P2
2022/10/30 00:01:03;;;;;;;15.93;4.15;;;13.90;99.90;;;14.10;100.00;100789.81;4985888;28;20318;-80
2022/10/30 00:03:30;;;;;;;18.27;4.43;;;13.90;99.90;;;14.15;100.00;100792.47;4987188;28;20227;-81
2022/10/30 00:05:57;;;;;;;24.92;6.38;;;13.90;99.90;;;14.27;100.00;100796.91;4987123;28;20300;-80
2022/10/30 00:08:24;;;;;;;13.60;3.60;;;14.00;99.90;;;14.36;100.00;100810.25;4988330;28;20275;-80
2022/10/30 00:10:52;;;;;;;23.35;5.47;;;14.10;99.90;;;14.39;100.00;100804.91;4986933;28;20233;-79
2022/10/30 00:13:20;;;;;;;13.32;3.72;;;14.20;99.90;;;14.48;100.00;100794.31;4984568;28;20279;-80
2022/10/30 00:15:50;;;;;;;15.70;4.13;;;14.20;99.90;;;14.46;100.00;100793.41;4996659;28;20260;-80
2022/10/30 00:18:19;;;;;;;13.85;3.60;;;14.20;99.90;;;14.47;100.00;100788.97;4982282;28;20653;-80
2022/10/30 00:20:47;;;;;;;13.45;3.83;;;14.30;99.90;;;14.49;100.00;100790.75;4989445;28;20672;-80
2022/10/30 00:23:14;;;;;;;20.95;5.15;;;14.30;99.90;;;14.48;100.00;100783.66;4986574;28;20237;-79
2022/10/30 00:25:41;;;;;;;16.13;4.32;;;14.30;99.90;;;14.49;100.00;100793.41;4997615;28;20260;-80
2022/10/30 00:28:08;;;;;;;19.17;4.82;;;14.30;99.90;;;14.46;100.00;100777.44;4999116;28;20258;-80
2022/10/30 00:30:36;;;;;;;19.52;5.03;;;14.30;99.90;;;14.46;100.00;100779.22;4982898;28;20303;-80
2022/10/30 00:33:04;;;;;;;17.45;4.63;;;14.20;99.90;;;14.38;100.00;100766.78;4982648;28;20282;-80
2022/10/30 00:35:31;;;;;;;15.93;4.18;;;14.20;99.90;;;14.35;100.00;100776.53;4974724;28;20236;-81
2022/10/30 00:37:59;;;;;;;15.00;3.85;;;14.20;99.90;;;14.25;100.00;100778.28;4978856;28;20240;-80
2022/10/30 00:40:28;;;;;;;17.75;4.45;;;14.10;99.90;;;14.28;100.00;100785.38;4984170;28;20228;-80
2022/10/30 00:42:55;;;;;;;17.70;4.78;;;14.10;99.90;;;14.24;100.00;100779.19;4982450;28;20255;-80
2022/10/30 00:45:22;;;;;;;17.70;4.35;;;14.10;99.90;;;14.21;100.00;100772.97;4983552;28;20282;-80
2022/10/30 00:47:58;;;;;;;13.45;3.47;;;14.00;99.90;;;14.20;100.00;100774.75;4989416;28;20224;-80
2022/10/30 00:50:31;;;;;;;19.27;5.18;;;14.00;99.90;;;14.15;100.00;100775.63;4983231;28;20235;-79
2022/10/30 00:53:04;;;;;;;17.63;4.90;;;14.00;99.90;;;14.16;100.00;100780.06;4986690;28;20356;-80
2022/10/30 00:55:44;;;;;;;17.20;4.50;;;13.90;99.90;;;14.15;100.00;100765.88;4975905;28;20350;-81
2022/10/30 00:58:16;;;;;;;15.30;3.92;;;13.90;99.90;;;14.06;100.00;100777.41;4988529;28;20282;-80
2022/10/30 01:00:49;;;;;;;16.50;4.00;;;13.90;99.90;;;14.00;100.00;100779.19;4983043;28;20328;-80
2022/10/30 01:03:18;;;;;;;15.23;4.10;;;13.80;99.90;;;13.93;100.00;100772.97;4988677;28;20232;-80
2022/10/30 01:05:51;;;;;;;10.82;2.88;;;13.70;99.90;;;13.97;100.00;100780.06;4985148;28;20229;-80
2022/10/30 01:08:19;;;;;;;14.77;3.67;;;13.80;99.90;;;13.97;100.00;100782.72;4982994;28;20690;-80
2022/10/30 01:10:47;;;;;;;14.73;3.63;;;13.80;99.90;;;13.88;100.00;100774.72;4983378;28;20226;-80
2022/10/30 01:13:17;;;;;;;16.98;4.00;;;13.70;99.90;;;13.83;100.00;100771.19;5002179;28;20271;-80
2022/10/30 01:16:09;;;;;;;17.77;4.57;;;13.70;99.90;;;13.82;100.00;100769.41;4967858;28;20280;-80
2022/10/30 01:19:25;;;;;;;13.13;3.38;;;13.60;99.90;;;13.97;100.00;100789.81;4985137;28;20295;-80
2022/10/30 01:21:59;;;;;;;20.73;5.50;;;13.70;99.90;;;14.11;100.00;100798.69;4984175;28;20224;-80
2022/10/30 01:25:20;;;;;;;17.55;4.57;;;13.80;99.90;;;14.09;100.00;100800.47;4980730;28;20224;-81
2022/10/30 01:28:09;;;;;;;18.63;5.13;;;13.90;99.90;;;14.01;100.00;100795.13;4981124;28;20281;-81
2022/10/30 01:30:50;;;;;;;12.68;3.35;;;13.80;99.90;;;14.03;100.00;100800.44;4991958;28;20240;-81
2022/10/30 01:33:44;;;;;;;15.93;4.13;;;13.80;99.90;;;14.02;100.00;100796.91;4988452;28;20315;-80
2022/10/30 01:36:20;;;;;;;15.10;3.97;;;13.80;99.90;;;13.99;100.00;100799.56;4988904;28;20299;-81
2022/10/30 01:38:54;;;;;;;12.43;3.33;;;13.80;99.90;;;13.82;100.00;100785.38;5000852;28;20270;-80
2022/10/30 01:41:21;;;;;;;10.77;2.95;;;13.70;99.90;;;13.67;100.00;100783.56;4988044;28;20316;-80
2022/10/30 01:43:54;;;;;;;13.63;3.47;;;13.60;99.90;;;13.44;100.00;100775.53;4989619;28;20232;-82
2022/10/30 01:46:52;;;;;;;15.43;3.97;;;13.40;99.90;;;13.40;100.00;100775.53;4989390;28;20259;-81
2022/10/30 01:49:49;;;;;;;16.00;4.35;;;13.30;99.90;;;13.39;100.00;100774.63;5002212;28;20240;-81
2022/10/30 01:52:46;;;;;;;9.88;2.85;;;13.20;99.90;;;13.32;100.00;100770.19;4988779;28;20236;-80
2022/10/30 01:55:43;;;;;;;16.75;4.38;;;13.20;99.90;;;13.16;100.00;100759.47;5002183;28;20320;-81
2022/10/30 01:58:19;;;;;;;15.00;4.30;;;13.10;99.90;;;13.14;100.00;100768.31;4993909;28;20271;-80
2022/10/30 02:00:52;;;;;;;12.68;3.55;;;13.00;99.90;;;13.34;100.00;100778.16;4981223;28;20282;-80
2022/10/30 02:03:21;;;;;;;12.77;3.40;;;13.10;99.90;;;13.46;100.00;100783.53;4965689;28;20276;-80
2022/10/30 02:05:51;;;;;;;15.75;4.10;;;13.20;99.90;;;13.45;100.00;100797.69;4986709;28;20252;-80
2022/10/30 02:08:20;;;;;;;19.40;4.80;;;13.20;99.90;;;13.34;100.00;100792.34;4980543;28;20252;-80
2022/10/30 02:10:51;;;;;;;12.18;3.15;;;13.10;99.90;;;13.36;100.00;100795.88;4988542;28;20350;-80
2022/10/30 02:13:18;;;;;;;12.85;3.55;;;13.20;99.90;;;13.25;100.00;100791.41;4982824;28;20255;-80
2022/10/30 02:15:46;;;;;;;14.98;4.18;;;13.10;99.90;;;13.16;100.00;100792.22;4987551;28;20296;-80
2022/10/30 02:18:14;;;;;;;13.10;3.70;;;13.00;99.90;;;13.11;100.00;100792.22;4984037;28;20248;-80
2022/10/30 02:20:41;;;;;;;18.95;5.30;;;13.00;99.90;;;13.20;100.00;100798.47;4988664;28;20324;-80
2022/10/30 02:23:12;;;;;;;12.15;3.38;;;13.00;99.90;;;13.37;100.00;100812.72;4976291;28;20307;-80
2022/10/30 02:25:39;;;;;;;14.35;3.90;;;13.10;99.90;;;13.30;100.00;100810.91;4984151;28;20239;-80
2022/10/30 02:28:06;;;;;;;14.13;4.05;;;13.10;99.90;;;13.32;100.00;100817.13;4985962;28;20667;-80
2022/10/30 02:30:33;;;;;;;15.30;4.20;;;13.10;99.90;;;13.33;100.00;100827.75;4978264;28;20232;-81
2022/10/30 02:33:00;;;;;;;15.90;4.25;;;13.10;99.90;;;13.34;100.00;100828.63;4982501;28;20278;-80
2022/10/30 02:35:29;;;;;;;14.07;3.97;;;13.10;99.90;;;13.25;100.00;100825.94;4978372;28;20264;-80
2022/10/30 02:37:56;;;;;;;13.32;3.70;;;13.10;99.90;;;13.19;100.00;100824.16;4982277;28;20416;-80
2022/10/30 02:40:23;;;;;;;15.65;4.22;;;13.00;99.90;;;13.18;100.00;100818.84;4980087;28;20232;-80
2022/10/30 02:42:52;;;;;;;18.60;4.82;;;13.00;99.90;;;13.04;100.00;100818.72;4984240;28;20252;-81
2022/10/30 02:45:19;;;;;;;13.02;3.80;;;12.90;99.90;;;12.93;100.00;100815.09;4982455;28;20235;-80
2022/10/30 02:47:46;;;;;;;12.40;3.70;;;12.80;99.90;;;12.95;100.00;100816.00;4981168;28;20290;-80
2022/10/30 02:50:14;;;;;;;13.93;4.18;;;12.80;99.90;;;12.84;100.00;100805.31;4997975;28;20280;-81
2022/10/30 02:52:41;;;;;;;10.48;3.13;;;12.70;99.90;;;12.92;100.00;100811.56;4989684;28;20224;-82
2022/10/30 02:55:09;;;;;;;26.02;6.80;;;12.70;99.90;;;12.84;100.00;100810.63;4989371;28;20271;-81
2022/10/30 02:57:36;;;;;;;44.72;12.57;;;12.70;99.90;;;12.76;100.00;100796.44;4982727;28;20713;-81
2022/10/30 03:00:04;;;;;;;9.98;3.25;;;12.70;99.90;;;12.64;100.00;100799.00;4991395;28;20307;-80
2022/10/30 03:02:31;;;;;;;12.90;3.63;;;12.50;99.90;;;12.65;100.00;100792.81;4989507;28;20220;-81
2022/10/30 03:04:58;;;;;;;13.60;3.80;;;12.50;99.90;;;12.44;100.00;100789.16;4991868;28;20299;-81
2022/10/30 03:07:25;;;;;;;11.35;3.20;;;12.40;99.90;;;12.32;100.00;100781.09;4981841;28;20252;-81
2022/10/30 03:09:53;;;;;;;17.13;4.22;;;12.20;99.90;;;12.28;100.00;100779.31;4997481;28;20292;-82
2022/10/30 03:12:21;;;;;;;14.90;4.35;;;12.20;99.90;;;12.52;100.00;100806.88;4985660;28;20232;-81
2022/10/30 03:14:48;;;;;;;16.40;4.72;;;12.30;99.90;;;12.52;100.00;100807.78;4965922;28;20267;-81
2022/10/30 03:17:15;;;;;;;17.70;4.78;;;12.30;99.90;;;12.49;100.00;100805.09;4983463;28;20330;-81
2022/10/30 03:19:42;;;;;;;18.25;5.30;;;12.30;99.90;;;12.38;100.00;100793.53;4980833;28;20239;-81
2022/10/30 03:22:09;;;;;;;12.07;3.28;;;12.20;99.90;;;12.36;100.00;100796.16;4980414;28;20252;-80
2022/10/30 03:24:37;;;;;;;14.00;3.70;;;12.20;99.90;;;12.50;100.00;100809.53;4997964;28;20327;-80
2022/10/30 03:27:04;;;;;;;17.85;4.57;;;12.30;99.90;;;12.35;100.00;100794.38;4980270;28;20256;-80
2022/10/30 03:29:31;;;;;;;13.73;3.80;;;12.20;99.90;;;12.28;100.00;100800.53;4978645;28;20229;-81
2022/10/30 03:31:58;;;;;;;18.02;4.78;;;12.20;99.90;;;12.28;100.00;100800.53;4991798;28;20235;-80
2022/10/30 03:34:26;;;;;;;18.30;5.20;;;12.10;99.90;;;12.35;100.00;100814.72;4984071;28;20255;-80
2022/10/30 03:36:53;;;;;;;12.55;3.85;;;12.20;99.90;;;12.35;100.00;100820.03;4995059;28;20371;-80
2022/10/30 03:39:20;;;;;;;16.50;4.38;;;12.10;99.90;;;12.31;100.00;100819.09;4980353;28;20304;-80
2022/10/30 03:41:47;;;;;;;14.23;4.07;;;12.10;99.90;;;12.26;100.00;100817.28;4986890;28;20243;-81
2022/10/30 03:44:15;;;;;;;15.18;4.25;;;12.10;99.90;;;12.22;100.00;100810.19;4983577;28;20254;-81
2022/10/30 03:46:42;;;;;;;18.27;4.90;;;12.10;99.90;;;12.30;100.00;100825.28;4977991;28;20692;-81
2022/10/30 03:49:09;;;;;;;15.13;4.28;;;12.10;99.90;;;12.14;100.00;100807.47;4978667;28;20224;-81
2022/10/30 03:51:35;;;;;;;14.38;4.15;;;12.00;99.90;;;12.07;100.00;100801.22;4984726;28;20243;-81
2022/10/30 03:54:03;;;;;;;18.10;5.22;;;12.00;99.90;;;11.97;100.00;100799.38;4981603;28;20271;-80
2022/10/30 03:56:30;;;;;;;16.30;4.65;;;11.90;99.90;;;11.91;100.00;100790.47;4976360;28;20236;-81
2022/10/30 03:58:57;;;;;;;16.73;4.22;;;11.80;99.90;;;11.73;100.00;100788.50;4977604;28;20304;-80
2022/10/30 04:01:24;;;;;;;15.18;4.30;;;11.70;99.90;;;11.79;100.00;100791.25;4985124;28;20693;-80
2022/10/30 04:03:51;;;;;;;18.30;4.97;;;11.60;99.90;;;11.73;100.00;100791.16;4981922;28;20237;-80
2022/10/30 04:06:18;;;;;;;14.18;3.78;;;11.60;99.90;;;11.59;100.00;100782.16;4981460;28;20252;-80
2022/10/30 04:08:45;;;;;;;18.17;4.85;;;11.50;99.90;;;11.68;100.00;100792.84;5000715;28;20252;-81
2022/10/30 04:11:12;;;;;;;14.00;3.63;;;11.50;99.90;;;11.64;100.00;100794.56;4989364;28;20315;-81
2022/10/30 04:13:39;;;;;;;19.17;4.95;;;11.50;99.90;;;11.63;100.00;100802.50;4988743;28;20311;-80
2022/10/30 04:16:07;;;;;;;16.60;4.35;;;11.50;99.90;;;11.77;100.00;100817.72;4982338;28;20228;-82
2022/10/30 04:18:34;;;;;;;17.92;4.72;;;11.60;99.90;;;11.70;100.00;100812.28;4983035;28;20220;-80
2022/10/30 04:21:01;;;;;;;16.58;4.10;;;11.50;99.90;;;11.95;100.00;100840.88;4983175;28;20295;-82
2022/10/30 04:23:28;;;;;;;13.02;3.95;;;11.70;99.90;;;11.93;100.00;100836.44;4988710;28;20308;-81
2022/10/30 04:25:55;;;;;;;18.70;5.63;;;11.70;99.90;;;12.09;100.00;100862.22;4985809;28;20681;-79
2022/10/30 04:28:22;;;;;;;18.10;4.70;;;11.80;99.90;;;12.22;100.00;100869.41;4987696;28;20323;-81
2022/10/30 04:30:49;;;;;;;23.35;5.93;;;12.00;99.90;;;12.24;100.00;100875.63;4982005;28;20233;-80
2022/10/30 04:33:16;;;;;;;14.00;3.63;;;12.00;99.90;;;12.14;100.00;100877.28;4982817;28;20228;-80
2022/10/30 04:35:45;;;;;;;17.65;4.75;;;12.00;99.90;;;11.97;100.00;100878.00;4986664;28;20267;-82
2022/10/30 04:38:15;;;;;;;17.20;4.50;;;11.90;99.90;;;11.82;100.00;100866.38;4982136;28;20255;-81
2022/10/30 04:40:43;;;;;;;15.95;4.40;;;11.70;99.90;;;11.69;100.00;100863.50;4986666;28;20232;-80
2022/10/30 04:43:11;;;;;;;12.10;3.40;;;11.60;99.90;;;11.65;100.00;100867.88;4986542;28;20244;-81
2022/10/30 04:45:40;;;;;;;16.40;4.13;;;11.50;99.90;;;11.75;100.00;100863.59;4983236;28;20263;-81
2022/10/30 04:48:16;;;;;;;12.80;3.38;;;11.60;99.90;;;11.57;100.00;100858.06;4987564;28;20224;-80
2022/10/30 04:50:44;;;;;;;23.98;6.35;;;11.40;99.90;;;11.18;100.00;100830.22;4980970;28;20240;-80
2022/10/30 04:53:16;;;;;;;11.60;3.13;;;11.20;99.90;;;11.45;100.00;100858.81;4984545;28;20318;-81
2022/10/30 04:55:44;;;;;;;13.32;3.47;;;11.30;99.90;;;11.10;100.00;100832.78;4989053;28;20323;-81
2022/10/30 04:58:12;;;;;;;19.50;5.32;;;11.10;99.90;;;11.19;100.00;100842.59;4983635;28;20241;-80
2022/10/30 05:00:40;;;;;;;21.17;5.78;;;11.00;99.90;;;11.21;100.00;100848.78;4981329;28;20314;-81
2022/10/30 05:03:20;;;;;;;33.95;7.30;;;11.10;99.90;;;11.09;100.00;100836.28;4981363;28;20318;-80
2022/10/30 05:05:56;;;;;;;16.02;4.18;;;11.00;99.90;;;11.09;100.00;100838.03;4998911;28;20707;-81
2022/10/30 05:08:33;;;;;;;17.17;4.28;;;11.00;99.90;;;11.15;100.00;100838.13;4984590;28;20256;-81
2022/10/30 05:11:04;;;;;;;16.10;4.00;;;11.00;99.90;;;10.82;100.00;100812.97;4955766;28;20235;-80
2022/10/30 05:13:31;;;;;;;15.30;4.05;;;10.80;99.90;;;10.71;100.00;100797.84;4976124;28;20312;-81
2022/10/30 05:15:58;;;;;;;18.98;5.60;;;10.70;99.90;;;10.63;100.00;100804.75;4983491;28;20236;-80
2022/10/30 05:18:25;;;;;;;17.50;4.30;;;10.60;99.90;;;10.85;100.00;100828.91;4998121;28;20732;-81
2022/10/30 05:20:52;;;;;;;21.25;5.20;;;10.70;99.90;;;10.58;100.00;100805.59;4979029;28;20233;-81
2022/10/30 05:23:19;;;;;;;13.70;3.47;;;10.60;99.90;;;10.58;100.00;100800.28;4984053;28;20315;-80
2022/10/30 05:25:46;;;;;;;15.27;3.67;;;10.50;99.90;;;10.63;100.00;100797.72;5000493;28;20286;-79
2022/10/30 05:28:14;;;;;;;27.85;6.90;;;10.50;99.90;;;10.72;100.00;100799.59;4981277;28;20228;-80
2022/10/30 05:30:42;;;;;;;24.80;6.22;;;10.50;99.90;;;10.43;100.00;100772.75;4965602;28;21872;-79
2022/10/30 05:33:11;;;;;;;19.52;4.53;;;10.50;99.90;;;10.25;100.00;100766.28;5000951;28;20319;-79
2022/10/30 05:35:38;;;;;;;21.17;4.88;;;10.30;99.90;;;10.39;100.00;100787.63;4980291;28;20335;-80
2022/10/30 05:38:13;;;;;;;18.10;4.43;;;10.30;99.90;;;10.16;100.00;100773.13;4980372;28;20236;-80
2022/10/30 05:40:40;;;;;;;25.20;5.45;;;10.10;99.90;;;10.16;100.00;100787.25;4982574;28;20282;-78
2022/10/30 05:43:10;;;;;;;15.40;3.63;;;10.10;99.90;;;10.29;100.00;100792.75;4984957;28;20314;-81
2022/10/30 05:45:37;;;;;;;15.52;3.63;;;10.10;99.90;;;10.31;100.00;100802.50;4998972;28;20255;-80
2022/10/30 05:48:06;;;;;;;22.75;5.35;;;10.20;99.90;;;10.33;100.00;100807.81;4981487;28;20319;-79
2022/10/30 05:50:33;;;;;;;18.27;4.32;;;10.20;99.90;;;10.48;100.00;100830.13;4973023;28;20352;-81
2022/10/30 05:53:03;;;;;;;47.00;10.13;;;10.20;99.90;;;10.62;100.00;100842.66;4993576;28;20314;-80
2022/10/30 05:55:34;;;;;;;23.02;5.15;;;10.40;99.90;;;10.63;100.00;100852.38;4985547;28;20323;-83
2022/10/30 05:58:05;;;;;;;33.72;7.43;;;10.50;99.90;;;10.43;100.00;100838.84;4989081;28;20312;-80
2022/10/30 06:00:35;;;;;;;23.08;5.15;;;10.40;99.90;;;10.24;100.00;100830.56;4974844;28;20330;-80
2022/10/30 06:03:05;;;;;;;28.30;6.22;;;10.30;99.90;;;10.32;100.00;100853.59;4980417;28;20263;-82
2022/10/30 06:05:35;;;;;;;21.90;4.97;;;10.20;99.90;;;10.24;100.00;100838.50;4983977;28;20239;-81
2022/10/30 06:08:05;;;;;;;20.45;4.55;;;9.80;99.90;;;10.37;100.00;100852.81;4987477;28;20228;-82
2022/10/30 06:10:32;;;;;;;18.75;4.13;;;10.30;99.90;;;10.33;100.00;100850.97;4992273;28;20240;-83
2022/10/30 06:13:02;;;;;;;24.60;5.57;;;10.20;99.90;;;10.17;100.00;100843.63;4991231;28;20231;-82
2022/10/30 06:15:31;;;;;;;16.02;3.78;;;10.10;99.90;;;10.15;100.00;100853.28;4992368;28;20275;-83
2022/10/30 06:17:59;;;;;;;17.33;4.18;;;10.00;99.90;;;10.25;100.00;100868.47;4987973;28;20224;-83
2022/10/30 06:20:28;;;;;;;15.48;3.75;;;10.10;99.90;;;10.40;100.00;100879.34;4986167;28;20243;-82
2022/10/30 06:23:05;;;;;;;13.63;3.42;;;10.20;99.90;;;10.48;100.00;100888.28;4983463;28;20225;-82
2022/10/30 06:25:35;;;;;;;14.77;3.65;;;10.30;99.90;;;10.42;100.00;100879.38;4981810;28;20315;-83
2022/10/30 06:28:08;;;;;;;17.58;4.07;;;10.30;99.90;;;10.34;100.00;100873.03;4993607;28;20224;-83
2022/10/30 06:30:35;;;;;;;14.68;3.50;;;10.20;99.90;;;10.34;100.00;100873.03;4987326;28;20653;-83
2022/10/30 06:33:04;;;;;;;16.95;3.85;;;10.20;99.90;;;10.41;100.00;100885.53;4988045;28;20236;-83
2022/10/30 06:35:32;;;;;;;22.15;5.13;;;10.20;99.90;;;10.45;100.00;100885.59;4986574;28;20243;-83
2022/10/30 06:37:59;;;;;;;21.85;5.00;;;10.30;99.90;;;10.45;100.00;100887.34;4986843;28;20244;-83
2022/10/30 06:40:28;;;;;;;21.13;4.47;;;10.30;99.90;;;10.45;100.00;100888.25;4995211;28;20255;-83
2022/10/30 06:42:56;;;;;;;24.23;4.90;;;10.30;99.90;;;10.42;100.00;100885.53;4996453;28;20220;-82
2022/10/30 06:45:24;;;;;;;20.27;4.35;;;10.30;99.90;;;10.43;100.00;100902.28;4992090;28;20237;-82
2022/10/30 06:47:51;;;;;;;10.70;3.08;;;10.30;99.90;;;10.43;100.00;100900.53;4994289;28;20247;-82
2022/10/30 06:50:20;;;;;;;34.67;6.93;;;10.30;99.90;;;10.40;100.00;100903.13;4991758;28;20256;-82
2022/10/30 06:52:48;;;;;;;20.00;4.40;;;10.30;99.90;;;10.50;100.00;100897.13;4986577;28;20611;-82
2022/10/30 06:55:15;;;;;;;20.38;4.72;;;10.30;99.90;;;10.57;100.00;100899.03;4989293;28;20228;-81
2022/10/30 06:57:42;;;;;;;25.50;5.65;;;10.40;99.90;;;10.66;100.00;100915.91;4994978;28;20251;-81
2022/10/30 07:00:13;;;;;;;20.52;4.57;;;10.50;99.90;;;10.68;100.00;100916.81;4986313;28;20236;-82
2022/10/30 07:02:40;;;;;;;8.90;3.05;;;10.50;99.90;;;10.69;100.00;100914.19;4986618;28;20228;-82
2022/10/30 07:05:08;;;;;;;14.65;4.25;;;10.50;99.90;;;10.78;100.00;100921.38;4986807;28;21070;-81
2022/10/30 07:07:35;;;;;;;18.48;4.15;;;10.60;99.90;;;10.85;100.00;100929.44;4997379;28;20228;-82
2022/10/30 07:10:02;;;;;;;14.90;4.25;;;10.70;99.90;;;10.78;100.00;100918.75;4985321;28;20278;-82
2022/10/30 07:12:29;;;;;;;22.52;5.05;;;10.60;99.90;;;10.93;100.00;100932.22;4994122;28;20275;-84
2022/10/30 07:14:56;;;;;;;13.00;3.72;;;10.80;99.90;;;10.98;100.00;100934.94;4991165;28;20305;-83
2022/10/30 07:17:23;;;;;;;15.85;3.70;;;10.80;99.90;;;11.11;100.00;100937.78;4996712;28;20230;-83
2022/10/30 07:19:50;;;;;;;14.02;3.78;;;11.00;99.90;;;11.13;100.00;100946.63;4990416;28;20243;-82
2022/10/30 07:22:17;;;;;;;16.27;3.83;;;11.00;99.90;;;11.17;100.00;100945.81;4987284;28;20699;-82
2022/10/30 07:24:44;;;;;;;14.98;3.45;;;11.00;99.90;;;11.23;100.00;100952.97;4988251;28;20691;-82
2022/10/30 07:27:11;;;;;;;20.08;5.60;;;11.10;99.90;;;11.27;100.00;100954.78;5002610;28;20266;-82
2022/10/30 07:29:38;;;;;;;18.20;4.35;;;11.10;99.90;;;11.39;100.00;100962.00;4988027;28;20324;-82
2022/10/30 07:32:05;;;;;;;20.35;4.88;;;11.20;99.90;;;11.51;100.00;100971.00;4993412;28;20258;-82
2022/10/30 07:34:33;;;;;;;16.15;4.05;;;11.30;99.90;;;11.52;100.00;100966.59;4988991;28;20319;-82
2022/10/30 07:37:00;;;;;;;15.90;4.50;;;11.40;99.90;;;11.58;100.00;100973.75;5060211;23;20226;-82
2022/10/30 07:39:27;;;;;;;19.63;4.60;;;11.50;99.90;;;11.62;100.00;100967.63;5045655;28;20222;-83
2022/10/30 07:41:54;;;;;;;20.63;4.70;;;11.50;99.90;;;11.65;100.00;100973.84;5037738;28;20223;-83
2022/10/30 07:44:21;;;;;;;14.85;3.75;;;11.50;99.90;;;11.71;100.00;100976.59;5031746;28;20246;-82
2022/10/30 07:46:48;;;;;;;16.30;4.25;;;11.50;99.90;;;11.70;100.00;100979.19;5046576;28;20312;-83
2022/10/30 07:49:16;;;;;;;18.80;4.40;;;11.60;99.90;;;11.68;100.00;100976.53;5050209;28;20237;-82
2022/10/30 07:51:43;;;;;;;20.48;4.88;;;11.60;99.90;;;11.70;100.00;100981.84;5037791;28;20243;-83
2022/10/30 07:54:10;;;;;;;15.25;3.78;;;11.60;99.90;;;11.81;100.00;100981.19;5053017;28;20254;-82
2022/10/30 07:56:37;;;;;;;14.48;3.47;;;11.60;99.90;;;11.87;100.00;100979.50;5050939;28;20242;-84
2022/10/30 07:59:04;;;;;;;19.98;5.00;;;11.70;99.90;;;12.03;100.00;100989.41;5046227;28;20227;-84
2022/10/30 08:01:31;;;;;;;15.15;3.90;;;11.80;99.90;;;11.99;100.00;100988.47;5043120;28;20232;-85
2022/10/30 08:03:59;;;;;;;21.55;5.30;;;11.90;99.90;;;12.20;100.00;100998.44;5051355;28;20221;-85
2022/10/30 08:06:26;;;;;;;13.93;3.58;;;12.00;99.90;;;12.29;100.00;101001.19;5042480;28;20330;-83
2022/10/30 08:08:53;;;;;;;12.85;3.30;;;12.10;99.90;;;12.35;100.00;101008.31;5033244;28;20246;-84
2022/10/30 08:11:20;;;;;;;14.90;3.67;;;12.20;99.90;;;12.37;100.00;101002.16;5055384;28;20255;-84
2022/10/30 08:13:47;;;;;;;11.07;2.80;;;12.20;99.90;;;12.43;100.00;101006.66;5052785;28;20284;-84
2022/10/30 08:16:16;;;;;;;13.63;3.45;;;12.20;99.90;;;12.44;100.00;101011.97;5049995;28;20273;-83
2022/10/30 08:18:43;;;;;;;13.48;3.30;;;12.30;99.90;;;12.52;100.00;101022.66;5044337;28;20230;-83
2022/10/30 08:21:10;;;;;;;13.80;3.50;;;12.30;99.90;;;12.56;100.00;101020.94;5046045;28;20703;-86
2022/10/30 08:23:38;;;;;;;12.23;3.05;;;12.40;99.90;;;12.57;100.00;101022.72;5044937;28;20246;-86
2022/10/30 08:26:05;;;;;;;14.38;3.92;;;12.40;99.90;;;12.66;100.00;101022.81;5049939;28;20301;-85
2022/10/30 08:28:32;;;;;;;12.05;3.10;;;12.50;99.90;;;12.79;100.00;101028.25;5046238;28;20221;-85
2022/10/30 08:31:02;;;;;;;14.55;3.78;;;12.60;99.90;;;12.80;100.00;101021.16;5045351;28;20699;-85
2022/10/30 08:33:29;;;;;;;17.40;4.50;;;12.70;99.90;;;12.98;100.00;101031.06;5029898;28;20246;-83
2022/10/30 08:35:58;;;;;;;16.33;4.30;;;12.80;99.90;;;12.96;100.00;101023.09;5035458;28;20655;-84
2022/10/30 08:38:27;;;;;;;15.32;3.85;;;12.80;99.90;;;13.09;100.00;101024.09;5053100;28;20242;-84
2022/10/30 08:40:54;;;;;;;12.52;3.28;;;12.90;99.90;;;13.18;100.00;101026.88;5046750;28;20321;-83
2022/10/30 08:43:24;;;;;;;20.23;5.35;;;13.00;99.90;;;13.42;100.00;101050.06;5053418;28;20227;-82
2022/10/30 08:45:56;;;;;;;23.52;5.90;;;13.10;99.90;;;13.33;100.00;101028.75;5016886;28;20706;-84
2022/10/30 08:48:24;;;;;;;22.08;5.88;;;13.20;99.90;;;13.52;100.00;101038.63;5033064;28;20232;-82
2022/10/30 08:50:51;;;;;;;19.45;4.88;;;13.30;99.90;;;13.75;100.00;101044.09;5033690;28;20295;-82
2022/10/30 08:53:19;;;;;;;15.10;4.28;;;13.50;99.90;;;13.78;100.00;101058.28;5044470;28;20314;-84
2022/10/30 08:55:46;;;;;;;13.40;3.53;;;13.50;99.90;;;13.67;100.00;101033.41;5046130;28;20304;-83
2022/10/30 08:58:13;;;;;;;15.48;4.03;;;13.60;99.90;;;13.67;100.00;101037.84;5034611;28;20255;-84
2022/10/30 09:00:40;;;;;;;12.40;3.42;;;13.50;99.90;;;13.67;100.00;101022.78;5044693;28;20414;-84
2022/10/30 09:03:07;;;;;;;15.77;3.97;;;13.60;99.90;;;13.96;100.00;101049.50;5037270;28;20313;-85
2022/10/30 09:05:36;;;;;;;24.58;6.63;;;13.70;99.90;;;13.94;100.00;101034.44;5045109;28;20315;-82
2022/10/30 09:08:03;;;;;;;24.85;6.43;;;13.80;99.90;;;14.05;100.00;101044.25;5043376;28;20235;-81
2022/10/30 09:10:31;;;;;;;20.27;5.03;;;13.80;99.90;;;14.05;100.00;101027.38;5021546;28;20234;-81
2022/10/30 09:13:01;;;;;;;21.75;5.07;;;13.90;99.90;;;14.26;100.00;101042.53;5031624;28;20227;-80
2022/10/30 09:15:28;;;;;;;19.67;5.25;;;14.00;99.90;;;14.41;100.00;101039.97;5040897;28;20226;-81
2022/10/30 09:17:59;;;;;;;17.60;4.47;;;14.20;99.90;;;14.53;100.00;101037.38;5025906;28;20253;-81
2022/10/30 09:20:28;;;;;;;17.27;4.55;;;14.30;99.90;;;14.55;100.00;101024.06;5041897;28;20228;-82
2022/10/30 09:22:58;;;;;;;28.90;7.05;;;14.40;99.90;;;14.82;100.00;101037.44;5037613;28;20678;-80
2022/10/30 09:25:26;;;;;;;21.02;5.28;;;14.60;99.90;;;14.68;100.00;101013.44;5042321;28;20237;-82
2022/10/30 09:27:54;;;;;;;22.38;5.57;;;14.60;99.90;;;15.01;100.00;101036.56;5043338;28;20245;-79
2022/10/30 09:30:21;;;;;;;13.98;3.67;;;14.80;99.90;;;15.00;100.00;101021.47;5045590;28;20254;-80
2022/10/30 09:33:00;;;;;;;14.35;3.70;;;14.80;99.90;;;15.11;100.00;101020.56;5026612;28;20233;-81
2022/10/30 09:35:29;;;;;;;21.70;5.53;;;14.90;99.90;;;15.37;100.00;101024.09;5028570;28;20223;-81
2022/10/30 09:37:58;;;;;;;23.48;5.72;;;15.10;99.90;;;15.44;100.00;101023.22;5023980;28;20226;-81
2022/10/30 09:41:09;;;;;;;16.65;4.35;;;15.20;99.90;;;15.44;100.00;101009.00;5054479;28;20227;-81
2022/10/30 09:44:03;;;;;;;17.42;4.72;;;15.20;99.90;;;15.50;100.00;101020.53;5025400;28;20222;-81
2022/10/30 09:47:15;;;;;;;14.95;3.97;;;15.20;99.90;;;15.54;100.00;101016.09;5024808;28;20285;-80
2022/10/30 09:50:10;;;;;;;19.30;4.95;;;15.30;99.90;;;15.74;100.00;101013.44;5015731;28;20222;-80
2022/10/30 09:53:29;;;;;;;12.13;3.40;;;15.50;99.90;;;15.82;100.00;101009.84;5049658;28;20226;-80
2022/10/30 09:56:15;;;;;;;18.13;4.80;;;15.50;99.90;;;16.07;100.00;101018.66;5044735;28;20335;-81
2022/10/30 09:58:48;;;;;;;13.07;4.38;;;15.80;99.90;;;16.06;100.00;101005.31;5037140;28;20226;-79
2022/10/30 10:02:18;;;;;;;12.90;3.72;;;15.80;99.90;;;16.04;100.00;100996.44;5042219;28;20289;-81
2022/10/30 10:04:58;;;;;;;11.95;4.32;;;15.80;99.90;;;16.24;100.00;100999.91;4991757;28;20316;-81
2022/10/30 10:07:39;;;;;;;13.88;4.05;;;16.00;99.90;;;16.31;100.00;100999.84;5027713;28;20751;-81
2022/10/30 10:10:37;;;;;;;12.07;3.25;;;16.00;99.90;;;16.20;100.00;100971.44;5024030;28;20649;-81
2022/10/30 10:13:22;;;;;;;10.10;2.90;;;16.00;99.90;;;16.54;100.00;100988.16;5043901;28;20222;-81
2022/10/30 10:15:58;;;;;;;14.27;4.05;;;16.20;99.90;;;16.55;100.00;100969.44;5024496;28;20233;-81